Time;durP1;ratioP1;P1;durP2;ratioP2;P2;SDS_P1;SDS_P2;PMS_P1;PMS_P2;Temp;Humidity;BMP_temperature;BMP_pressure;BME280_temperature;BME280_humidity;BME280_pressure;Samples;Min_cycle;Max_cycle;Signal;HPM_P1;HPM_P2
2023/09/02 00:00:14;;;;;;;11.13;8.65;;;18.80;96.00;;;;;;10493290;28;20391;-63
2023/09/02 00:05:15;;;;;;;10.38;8.70;;;18.90;96.10;;;;;;10491232;28;20790;-63
2023/09/02 00:10:16;;;;;;;10.48;8.25;;;18.90;96.10;;;;;;10492635;28;20405;-62
2023/09/02 00:15:17;;;;;;;10.13;8.43;;;18.90;96.00;;;;;;10492845;28;20432;-63
2023/09/02 00:20:18;;;;;;;10.90;8.37;;;18.90;96.00;;;;;;10489371;28;20395;-62
2023/09/02 00:25:21;;;;;;;11.23;8.60;;;18.90;96.00;;;;;;10494917;28;20802;-63
2023/09/02 00:30:22;;;;;;;10.50;8.77;;;18.90;96.10;;;;;;10493429;28;20410;-63
2023/09/02 00:35:22;;;;;;;10.75;8.15;;;18.90;96.10;;;;;;10491350;28;20948;-63
2023/09/02 00:40:26;;;;;;;9.87;8.03;;;18.80;96.00;;;;;;10491652;28;20425;-63
2023/09/02 00:45:26;;;;;;;11.60;8.50;;;18.80;96.10;;;;;;10483431;28;21445;-63
2023/09/02 00:50:27;;;;;;;11.50;7.97;;;18.80;96.10;;;;;;10493756;28;20482;-63
2023/09/02 00:55:28;;;;;;;10.53;8.03;;;18.80;96.10;;;;;;10490718;28;20402;-63
2023/09/02 01:00:29;;;;;;;10.20;8.20;;;18.80;96.40;;;;;;10490275;28;20469;-62
2023/09/02 01:05:29;;;;;;;9.45;7.53;;;18.80;96.10;;;;;;10493385;28;20439;-62
2023/09/02 01:10:34;;;;;;;9.35;7.63;;;18.80;96.20;;;;;;10501348;28;20997;-63
2023/09/02 01:15:34;;;;;;;10.45;8.30;;;18.80;96.10;;;;;;10495017;28;20404;-63
2023/09/02 01:21:02;;;;;;;10.27;8.60;;;18.70;96.10;;;;;;10488029;28;20936;-63
2023/09/02 01:26:40;;;;;;;11.73;8.50;;;18.80;96.20;;;;;;10479601;28;20388;-63
2023/09/02 01:31:41;;;;;;;10.38;7.90;;;18.80;96.20;;;;;;10479599;28;20393;-62
2023/09/02 01:36:46;;;;;;;10.53;8.20;;;18.80;96.20;;;;;;10481977;28;20505;-63
2023/09/02 01:41:48;;;;;;;11.00;8.13;;;18.70;96.20;;;;;;10483476;28;20398;-63
2023/09/02 01:46:49;;;;;;;9.60;7.95;;;18.70;96.20;;;;;;10481311;28;20410;-62
2023/09/02 01:51:50;;;;;;;10.75;8.25;;;18.70;96.20;;;;;;10480275;28;20797;-63
2023/09/02 01:56:52;;;;;;;11.03;8.30;;;18.70;96.20;;;;;;10478431;28;20408;-63
2023/09/02 02:01:52;;;;;;;10.80;8.45;;;18.70;96.20;;;;;;10483720;28;20891;-63
2023/09/02 02:07:00;;;;;;;11.53;8.33;;;18.60;96.20;;;;;;10485358;28;20416;-62
2023/09/02 02:12:02;;;;;;;8.87;7.60;;;18.70;96.30;;;;;;10493619;28;20455;-62
2023/09/02 02:17:03;;;;;;;10.38;8.23;;;18.70;96.20;;;;;;10489528;28;20400;-63
2023/09/02 02:22:04;;;;;;;10.77;7.95;;;18.70;96.30;;;;;;10483725;28;20407;-63
2023/09/02 02:27:05;;;;;;;10.60;8.00;;;18.70;96.20;;;;;;10485795;28;20403;-63
2023/09/02 02:32:05;;;;;;;10.70;8.43;;;18.70;96.20;;;;;;10491771;28;20387;-61
2023/09/02 02:37:06;;;;;;;10.43;8.18;;;18.70;96.20;;;;;;10485972;28;20412;-62
2023/09/02 02:42:07;;;;;;;11.90;8.65;;;18.70;96.20;;;;;;10479621;28;20398;-63
2023/09/02 02:47:07;;;;;;;11.17;8.50;;;18.70;96.30;;;;;;10480118;28;20406;-63
2023/09/02 02:52:08;;;;;;;10.73;8.30;;;18.70;96.20;;;;;;10487000;28;20754;-61
2023/09/02 02:57:08;;;;;;;10.07;8.37;;;18.70;96.30;;;;;;10487073;28;20411;-62
2023/09/02 03:02:09;;;;;;;10.73;8.40;;;18.70;96.30;;;;;;10483598;28;20445;-63
2023/09/02 03:07:10;;;;;;;11.03;8.77;;;18.70;96.30;;;;;;10484835;28;20422;-62
2023/09/02 03:12:10;;;;;;;10.63;8.50;;;18.70;96.30;;;;;;10491081;28;20619;-61
2023/09/02 03:17:11;;;;;;;10.10;8.40;;;18.70;96.30;;;;;;10480480;28;20411;-62
2023/09/02 03:22:12;;;;;;;10.60;8.38;;;18.70;96.30;;;;;;10480509;28;20427;-63
2023/09/02 03:27:12;;;;;;;10.02;8.45;;;18.70;96.30;;;;;;10480439;28;20730;-63
2023/09/02 03:32:13;;;;;;;12.70;8.80;;;18.70;96.30;;;;;;10480880;28;20394;-63
2023/09/02 03:37:13;;;;;;;10.87;8.73;;;18.70;96.30;;;;;;10480760;28;20468;-62
2023/09/02 03:42:14;;;;;;;12.00;8.90;;;18.70;96.30;;;;;;10485774;28;20408;-62
2023/09/02 03:47:15;;;;;;;11.93;9.13;;;18.60;96.30;;;;;;10490040;28;20399;-63
2023/09/02 03:52:15;;;;;;;11.27;8.97;;;18.60;96.30;;;;;;10483448;28;20413;-63
2023/09/02 03:57:16;;;;;;;12.23;9.27;;;18.70;96.40;;;;;;10481146;28;20490;-63
2023/09/02 04:02:17;;;;;;;10.68;8.85;;;18.60;96.30;;;;;;10481645;28;21039;-63
2023/09/02 04:07:18;;;;;;;10.20;8.83;;;18.70;96.40;;;;;;10486667;28;20397;-62
2023/09/02 04:12:18;;;;;;;10.73;8.77;;;18.60;96.30;;;;;;10482594;28;20417;-62
2023/09/02 04:17:19;;;;;;;9.73;8.27;;;18.60;96.30;;;;;;10485058;28;20407;-63
2023/09/02 04:22:19;;;;;;;11.70;8.87;;;18.60;96.40;;;;;;10482350;28;20735;-62
2023/09/02 04:27:20;;;;;;;10.90;8.90;;;18.60;96.40;;;;;;10485300;28;20394;-62
2023/09/02 04:32:21;;;;;;;12.05;9.30;;;18.60;96.30;;;;;;10486108;28;20431;-63
2023/09/02 04:37:22;;;;;;;11.80;9.18;;;18.60;96.40;;;;;;10486644;28;20992;-62
2023/09/02 04:42:22;;;;;;;11.10;8.93;;;18.60;96.40;;;;;;10483840;28;20414;-63
2023/09/02 04:47:23;;;;;;;11.80;9.13;;;18.60;96.40;;;;;;10484370;28;20959;-63
2023/09/02 04:52:24;;;;;;;10.97;8.77;;;18.60;96.40;;;;;;10482150;28;20398;-63
2023/09/02 04:57:25;;;;;;;11.43;9.23;;;18.60;96.40;;;;;;10488257;28;20874;-62
2023/09/02 05:02:25;;;;;;;11.60;9.27;;;18.50;96.50;;;;;;10481444;28;20396;-63
2023/09/02 05:07:26;;;;;;;12.23;9.67;;;18.60;96.50;;;;;;10484449;28;20397;-63
2023/09/02 05:12:27;;;;;;;11.47;9.20;;;18.60;96.50;;;;;;10477090;28;20406;-63
2023/09/02 05:17:27;;;;;;;11.05;9.00;;;18.60;96.50;;;;;;10480006;28;20415;-62
2023/09/02 05:22:28;;;;;;;12.02;9.82;;;18.60;96.50;;;;;;10480697;28;20439;-62
2023/09/02 05:27:29;;;;;;;12.38;9.52;;;18.60;96.50;;;;;;10482822;28;20421;-62
2023/09/02 05:32:30;;;;;;;11.97;9.30;;;18.60;96.50;;;;;;10488074;28;20409;-63
2023/09/02 05:37:30;;;;;;;11.33;9.17;;;18.60;96.50;;;;;;10482728;28;20409;-62
2023/09/02 05:42:31;;;;;;;12.40;9.32;;;18.50;96.50;;;;;;10484614;28;20409;-63
2023/09/02 05:47:31;;;;;;;12.43;9.77;;;18.60;96.70;;;;;;10485518;28;20406;-62
2023/09/02 05:52:32;;;;;;;12.38;9.55;;;18.60;96.50;;;;;;10481011;28;21018;-63
2023/09/02 05:57:33;;;;;;;12.00;9.80;;;18.60;96.50;;;;;;10484876;28;20485;-63
2023/09/02 06:02:34;;;;;;;12.03;9.40;;;18.60;96.50;;;;;;10470117;28;20781;-62
2023/09/02 06:07:34;;;;;;;12.30;9.65;;;18.60;96.50;;;;;;10476843;28;20406;-62
2023/09/02 06:12:35;;;;;;;13.25;9.80;;;18.60;96.50;;;;;;10484919;28;20891;-62
2023/09/02 06:17:35;;;;;;;13.25;10.32;;;18.60;96.50;;;;;;10478882;28;20410;-63
2023/09/02 06:22:36;;;;;;;13.02;9.70;;;18.60;96.50;;;;;;10484020;28;20468;-61
2023/09/02 06:27:37;;;;;;;13.15;9.82;;;18.60;96.50;;;;;;10483812;28;21303;-62
2023/09/02 06:32:37;;;;;;;11.83;9.73;;;18.60;96.60;;;;;;10481891;28;20413;-63
2023/09/02 06:37:38;;;;;;;11.53;9.70;;;18.60;96.50;;;;;;10479711;28;20440;-62
2023/09/02 06:42:38;;;;;;;13.60;10.50;;;18.60;96.50;;;;;;10477644;28;20417;-61
2023/09/02 06:47:39;;;;;;;11.93;9.87;;;18.60;96.50;;;;;;10487781;28;20402;-62
2023/09/02 06:52:40;;;;;;;11.57;9.57;;;18.60;96.60;;;;;;10485711;28;20482;-62
2023/09/02 06:57:42;;;;;;;12.37;10.13;;;18.60;96.50;;;;;;10496414;28;20412;-62
2023/09/02 07:02:43;;;;;;;11.67;9.23;;;18.60;96.60;;;;;;10486764;28;20393;-62
2023/09/02 07:07:43;;;;;;;11.50;9.60;;;18.60;96.60;;;;;;10492879;28;20428;-61
2023/09/02 07:12:44;;;;;;;12.40;9.60;;;18.50;96.50;;;;;;10490565;28;20500;-64
2023/09/02 07:17:46;;;;;;;12.27;9.75;;;18.60;96.60;;;;;;10492960;28;20419;-61
2023/09/02 07:22:47;;;;;;;11.67;9.20;;;18.60;96.60;;;;;;10492427;28;20820;-63
2023/09/02 07:27:47;;;;;;;12.57;9.63;;;18.60;96.50;;;;;;10491153;28;20402;-61
2023/09/02 07:32:52;;;;;;;11.80;10.05;;;18.60;96.50;;;;;;10492772;28;20481;-62
2023/09/02 07:37:53;;;;;;;11.02;9.40;;;18.70;96.50;;;;;;10501648;28;20471;-62
2023/09/02 07:42:53;;;;;;;12.03;9.30;;;18.70;96.40;;;;;;10496670;28;20492;-63
2023/09/02 07:47:54;;;;;;;11.30;9.20;;;18.70;96.40;;;;;;10495442;28;20400;-63
2023/09/02 07:52:54;;;;;;;11.10;8.80;;;18.70;96.40;;;;;;10493162;28;20922;-62
2023/09/02 07:57:57;;;;;;;11.67;9.70;;;18.70;96.30;;;;;;10488448;28;20409;-62
2023/09/02 08:02:58;;;;;;;12.23;9.67;;;18.70;96.30;;;;;;10487265;28;20480;-62
2023/09/02 08:07:58;;;;;;;11.35;8.90;;;18.70;96.40;;;;;;10473414;28;20856;-63
2023/09/02 08:12:59;;;;;;;11.02;9.38;;;18.70;96.30;;;;;;10484333;28;20951;-62
2023/09/02 08:18:00;;;;;;;11.47;9.40;;;18.70;96.30;;;;;;10476843;28;20509;-62
2023/09/02 08:23:01;;;;;;;11.07;8.63;;;18.70;96.30;;;;;;10487984;28;20411;-63
2023/09/02 08:28:01;;;;;;;11.40;9.07;;;18.80;96.30;;;;;;10488028;28;20553;-62
2023/09/02 08:33:03;;;;;;;11.57;9.30;;;18.80;96.40;;;;;;10486296;28;20411;-63
2023/09/02 08:38:04;;;;;;;10.93;9.03;;;18.80;96.40;;;;;;10494879;28;20414;-63
2023/09/02 08:43:05;;;;;;;11.23;9.15;;;18.80;96.40;;;;;;10483685;28;20399;-61
2023/09/02 08:48:11;;;;;;;10.07;8.75;;;18.80;96.40;;;;;;10492946;28;20400;-62
2023/09/02 08:53:11;;;;;;;11.05;9.13;;;18.80;96.40;;;;;;10485564;28;20484;-64
2023/09/02 08:58:13;;;;;;;11.50;9.63;;;18.80;96.30;;;;;;10482149;28;20414;-64
2023/09/02 09:03:14;;;;;;;12.63;9.75;;;18.80;96.50;;;;;;10491143;28;20400;-63
2023/09/02 09:08:16;;;;;;;11.93;9.63;;;18.80;96.60;;;;;;10487264;28;20428;-64
2023/09/02 09:13:18;;;;;;;11.27;9.03;;;18.90;96.50;;;;;;10476699;28;20409;-64
2023/09/02 09:18:20;;;;;;;13.52;9.35;;;18.90;96.40;;;;;;10487829;28;20418;-63
2023/09/02 09:23:20;;;;;;;11.35;9.45;;;18.90;96.40;;;;;;10492240;28;20812;-64
2023/09/02 09:28:21;;;;;;;12.60;9.98;;;18.90;96.50;;;;;;10487503;28;20461;-64
2023/09/02 09:33:21;;;;;;;12.05;9.43;;;19.00;96.50;;;;;;10485980;28;20970;-63
2023/09/02 09:38:35;;;;;;;21.57;14.17;;;19.00;96.40;;;;;;10481535;28;20544;-64
2023/09/02 09:43:38;;;;;;;23.40;14.83;;;19.00;99.90;;;;;;10489415;28;21408;-64
2023/09/02 09:48:46;;;;;;;23.05;15.23;;;19.00;99.90;;;;;;10496101;28;20401;-63
2023/09/02 09:53:47;;;;;;;26.40;16.03;;;19.10;99.90;;;;;;10486782;28;20395;-64
2023/09/02 09:58:48;;;;;;;26.48;16.25;;;19.20;99.90;;;;;;10485104;28;20411;-63
2023/09/02 10:03:51;;;;;;;29.27;17.15;;;19.20;99.90;;;;;;10492328;28;20427;-64
2023/09/02 10:08:54;;;;;;;27.15;17.10;;;19.20;99.90;;;;;;10494025;28;20403;-64
2023/09/02 10:13:57;;;;;;;24.95;15.85;;;19.30;99.90;;;;;;10487216;28;20982;-64
2023/09/02 10:18:59;;;;;;;26.10;15.32;;;19.30;99.90;;;;;;10491129;28;20424;-64
2023/09/02 10:24:04;;;;;;;27.20;16.80;;;19.30;99.90;;;;;;10497931;28;20774;-63
2023/09/02 10:29:12;;;;;;;30.00;18.60;;;19.20;99.90;;;;;;10496561;28;20430;-63
2023/09/02 10:34:17;;;;;;;32.17;18.85;;;19.30;99.90;;;;;;10507653;28;20467;-64
2023/09/02 10:39:47;;;;;;;30.27;18.65;;;19.40;99.90;;;;;;10493774;28;20396;-64
2023/09/02 10:44:48;;;;;;;30.27;19.00;;;19.40;99.90;;;;;;10491595;28;20510;-65
2023/09/02 10:49:50;;;;;;;29.17;19.63;;;19.30;99.90;;;;;;10499395;28;20593;-64
2023/09/02 10:55:09;;;;;;;28.98;18.35;;;19.20;99.90;;;;;;10490673;28;20457;-63
2023/09/02 11:00:27;;;;;;;25.45;17.27;;;19.40;99.90;;;;;;10495216;28;20792;-63
2023/09/02 11:05:28;;;;;;;28.10;17.48;;;19.70;99.90;;;;;;10497984;28;20513;-63
2023/09/02 11:10:50;;;;;;;26.63;16.00;;;20.10;99.90;;;;;;10500402;28;20413;-63
2023/09/02 11:16:14;;;;;;;22.95;15.23;;;20.40;99.90;;;;;;10501734;28;20752;-65
2023/09/02 11:21:43;;;;;;;24.30;14.33;;;20.50;99.00;;;;;;10504568;28;20830;-64
2023/09/02 11:26:55;;;;;;;23.83;14.80;;;20.70;98.80;;;;;;10487758;28;20468;-64
2023/09/02 11:32:01;;;;;;;21.17;13.75;;;20.80;98.60;;;;;;10496460;28;20394;-65
2023/09/02 11:37:03;;;;;;;20.55;12.73;;;20.70;98.40;;;;;;10497725;28;20588;-65
2023/09/02 11:42:07;;;;;;;18.77;12.55;;;20.30;97.90;;;;;;10506125;28;20402;-65
2023/09/02 11:47:08;;;;;;;19.45;13.07;;;20.20;98.60;;;;;;10500393;28;20410;-66
2023/09/02 11:52:09;;;;;;;22.67;13.20;;;20.40;98.80;;;;;;10487304;28;20504;-66
2023/09/02 11:57:09;;;;;;;19.93;11.87;;;20.60;98.80;;;;;;10483251;28;20406;-64
2023/09/02 12:02:12;;;;;;;16.92;11.30;;;20.50;98.60;;;;;;10485045;28;20419;-66
2023/09/02 12:07:13;;;;;;;17.85;11.60;;;20.60;98.60;;;;;;10493566;28;20415;-66
2023/09/02 12:12:17;;;;;;;18.17;10.67;;;20.60;98.40;;;;;;10480832;28;20609;-67
2023/09/02 12:17:17;;;;;;;15.38;10.30;;;20.60;98.50;;;;;;10484561;28;20405;-69
2023/09/02 12:22:18;;;;;;;16.77;9.83;;;20.60;98.30;;;;;;10484477;28;20397;-67
2023/09/02 12:27:19;;;;;;;15.80;9.67;;;20.70;98.20;;;;;;10492082;28;20930;-68
2023/09/02 12:32:20;;;;;;;15.53;9.30;;;20.60;98.10;;;;;;10494006;28;20825;-67
2023/09/02 12:37:21;;;;;;;13.23;8.80;;;20.60;98.10;;;;;;10487454;28;20411;-67
2023/09/02 12:42:26;;;;;;;14.63;8.88;;;20.60;98.20;;;;;;10496639;28;20494;-67
2023/09/02 12:47:27;;;;;;;11.73;8.05;;;20.60;98.10;;;;;;10489818;28;20398;-67
2023/09/02 12:52:29;;;;;;;12.07;8.33;;;20.60;98.00;;;;;;10485280;28;20521;-67
2023/09/02 12:57:34;;;;;;;11.23;7.72;;;20.70;98.10;;;;;;10495108;28;20420;-67
2023/09/02 13:02:35;;;;;;;12.00;7.93;;;20.80;97.90;;;;;;10482611;28;20518;-67
2023/09/02 13:07:35;;;;;;;11.70;7.67;;;20.90;97.90;;;;;;10496236;28;20477;-67
2023/09/02 13:12:40;;;;;;;10.90;7.43;;;21.00;97.90;;;;;;10486381;28;20391;-67
2023/09/02 13:17:41;;;;;;;9.70;7.20;;;21.00;97.50;;;;;;10485052;28;20498;-68
2023/09/02 13:22:41;;;;;;;12.23;7.23;;;20.90;97.10;;;;;;10489835;28;20414;-67
2023/09/02 13:27:42;;;;;;;9.20;6.73;;;20.80;97.20;;;;;;10491084;28;20525;-67
2023/09/02 13:32:43;;;;;;;8.27;6.33;;;20.90;97.20;;;;;;10488736;28;20927;-68
2023/09/02 13:37:46;;;;;;;9.43;6.90;;;21.00;97.20;;;;;;10491502;28;20417;-68
2023/09/02 13:42:47;;;;;;;9.88;6.60;;;21.00;97.20;;;;;;10469034;28;20392;-68
2023/09/02 13:47:49;;;;;;;9.88;6.72;;;21.10;96.60;;;;;;10488461;28;20426;-68
2023/09/02 13:52:52;;;;;;;9.77;6.18;;;21.20;96.60;;;;;;10481910;28;20407;-68
2023/09/02 13:57:53;;;;;;;7.60;5.88;;;21.30;96.50;;;;;;10490568;28;20402;-68
2023/09/02 14:02:55;;;;;;;8.60;5.90;;;21.40;96.20;;;;;;10489755;28;20450;-69
2023/09/02 14:08:00;;;;;;;9.50;5.80;;;21.50;96.20;;;;;;10501320;28;20813;-68
2023/09/02 14:13:08;;;;;;;10.10;5.83;;;21.50;96.10;;;;;;10499790;28;20407;-67
2023/09/02 14:18:09;;;;;;;7.03;5.70;;;21.70;95.90;;;;;;10498351;28;20498;-69
2023/09/02 14:23:10;;;;;;;9.20;5.55;;;21.80;95.60;;;;;;10499543;28;20421;-70
2023/09/02 14:28:14;;;;;;;8.93;5.43;;;21.80;95.50;;;;;;10503756;28;20397;-68
2023/09/02 14:33:14;;;;;;;8.70;5.63;;;21.90;95.60;;;;;;10498679;28;20542;-70
2023/09/02 14:38:15;;;;;;;7.90;5.23;;;22.00;95.30;;;;;;10501127;28;20456;-70
2023/09/02 14:43:16;;;;;;;5.87;5.23;;;22.10;95.10;;;;;;10494561;28;20407;-69
2023/09/02 14:48:16;;;;;;;6.53;4.90;;;22.10;95.30;;;;;;10501344;28;20401;-70
2023/09/02 14:53:17;;;;;;;8.50;5.60;;;22.00;95.30;;;;;;10497037;28;20407;-68
2023/09/02 14:58:18;;;;;;;8.27;5.25;;;22.00;95.10;;;;;;10493066;28;21760;-69
2023/09/02 15:03:28;;;;;;;7.45;5.00;;;21.90;94.90;;;;;;10501382;28;20507;-71
2023/09/02 15:08:32;;;;;;;7.18;5.35;;;21.90;95.40;;;;;;10504969;28;20398;-69
2023/09/02 15:13:36;;;;;;;8.05;5.32;;;22.00;95.80;;;;;;10492485;28;20499;-69
2023/09/02 15:18:37;;;;;;;9.30;5.32;;;22.10;96.00;;;;;;10492529;28;20473;-67
2023/09/02 15:23:42;;;;;;;6.40;5.10;;;22.20;95.80;;;;;;10489765;28;20867;-68
2023/09/02 15:28:44;;;;;;;7.28;5.35;;;22.30;95.60;;;;;;10495909;28;20439;-68
2023/09/02 15:33:45;;;;;;;8.50;5.37;;;22.50;95.20;;;;;;10502199;28;20830;-68
2023/09/02 15:38:46;;;;;;;9.13;5.28;;;22.70;94.80;;;;;;10496095;28;20498;-68
2023/09/02 15:43:47;;;;;;;6.35;5.20;;;22.90;94.60;;;;;;10501483;28;20418;-66
2023/09/02 15:48:48;;;;;;;6.82;5.40;;;22.90;94.60;;;;;;10504991;28;20689;-67
2023/09/02 15:53:49;;;;;;;8.80;5.82;;;22.90;94.60;;;;;;10505439;28;20417;-66
2023/09/02 15:58:50;;;;;;;6.87;5.33;;;22.80;94.60;;;;;;10494671;28;20438;-67
2023/09/02 16:03:50;;;;;;;6.80;5.43;;;22.70;94.80;;;;;;10491635;28;20403;-66
2023/09/02 16:08:52;;;;;;;8.63;5.40;;;22.70;94.80;;;;;;10503369;28;20732;-67
2023/09/02 16:13:54;;;;;;;6.72;5.55;;;22.60;94.80;;;;;;10487765;28;20946;-67
2023/09/02 16:18:56;;;;;;;7.75;5.28;;;22.60;94.90;;;;;;10484307;28;20408;-67
2023/09/02 16:23:57;;;;;;;7.63;5.25;;;22.60;94.70;;;;;;10478772;28;20948;-69
2023/09/02 16:28:57;;;;;;;6.87;5.10;;;22.50;94.70;;;;;;10480886;28;20395;-69
2023/09/02 16:33:58;;;;;;;6.33;4.93;;;22.40;94.70;;;;;;10481708;28;20409;-68
2023/09/02 16:38:59;;;;;;;5.67;4.87;;;22.40;94.80;;;;;;10487023;28;20413;-69
2023/09/02 16:44:00;;;;;;;5.55;4.78;;;22.30;94.60;;;;;;10492155;28;20402;-69
2023/09/02 16:49:03;;;;;;;7.53;5.22;;;22.20;94.80;;;;;;10482481;28;20414;-69
2023/09/02 16:54:03;;;;;;;9.63;5.82;;;22.20;94.80;;;;;;10483014;28;20408;-69
2023/09/02 16:59:04;;;;;;;22.13;13.10;;;22.00;93.00;;;;;;10490409;28;20402;-69
2023/09/02 17:04:05;;;;;;;9.33;6.67;;;21.80;93.50;;;;;;10491674;28;20501;-69
2023/09/02 17:09:05;;;;;;;7.23;4.90;;;21.70;93.60;;;;;;10487799;28;20389;-68
2023/09/02 17:14:08;;;;;;;7.17;3.57;;;21.50;93.60;;;;;;10476578;28;20456;-68
2023/09/02 17:19:09;;;;;;;3.78;2.90;;;21.30;93.80;;;;;;10474201;28;20753;-69
2023/09/02 17:24:16;;;;;;;5.53;2.60;;;21.10;94.00;;;;;;10479209;28;20645;-69
2023/09/02 17:29:18;;;;;;;3.80;1.90;;;21.00;94.00;;;;;;10483335;28;20422;-68
2023/09/02 17:34:18;;;;;;;3.30;2.10;;;20.80;94.00;;;;;;10489323;28;20412;-68
2023/09/02 17:39:19;;;;;;;3.27;1.60;;;20.70;94.30;;;;;;10478683;28;20489;-68
2023/09/02 17:44:19;;;;;;;3.75;1.80;;;20.60;94.10;;;;;;10481940;28;20406;-69
2023/09/02 17:49:20;;;;;;;3.00;1.73;;;20.50;94.30;;;;;;10477651;28;20469;-68
2023/09/02 17:54:22;;;;;;;2.97;1.73;;;20.40;94.30;;;;;;10485951;28;20398;-68
2023/09/02 17:59:22;;;;;;;4.88;1.90;;;20.30;94.40;;;;;;10486029;28;20891;-68
2023/09/02 18:04:23;;;;;;;3.08;1.80;;;20.20;94.60;;;;;;10484133;28;20400;-69
2023/09/02 18:09:24;;;;;;;2.97;1.80;;;20.20;94.60;;;;;;10470303;28;20440;-65
2023/09/02 18:14:24;;;;;;;4.30;1.63;;;20.30;95.20;;;;;;10479213;28;20392;-65
2023/09/02 18:19:25;;;;;;;3.05;1.52;;;20.50;94.90;;;;;;10486921;28;20413;-66
2023/09/02 18:24:26;;;;;;;3.17;1.93;;;20.70;94.70;;;;;;10480213;28;20995;-65
2023/09/02 18:29:28;;;;;;;2.40;1.63;;;20.80;94.60;;;;;;10481659;28;20399;-65
2023/09/02 18:34:29;;;;;;;2.90;1.77;;;20.90;94.60;;;;;;10479037;28;20506;-65
2023/09/02 18:39:30;;;;;;;3.72;1.80;;;21.00;94.60;;;;;;10481774;28;20407;-66
2023/09/02 18:44:31;;;;;;;2.40;1.43;;;21.00;94.70;;;;;;10485192;28;20410;-65
2023/09/02 18:49:31;;;;;;;2.40;1.80;;;21.00;94.60;;;;;;10488505;28;20398;-66
2023/09/02 18:54:32;;;;;;;2.57;1.60;;;21.10;94.70;;;;;;10488449;28;20414;-65
2023/09/02 18:59:32;;;;;;;2.73;1.47;;;21.00;94.70;;;;;;10488718;28;20396;-65
2023/09/02 19:04:33;;;;;;;3.30;1.77;;;21.00;94.70;;;;;;10492680;28;20407;-65
2023/09/02 19:09:34;;;;;;;2.53;1.67;;;21.00;94.70;;;;;;10494340;28;20803;-64
2023/09/02 19:14:35;;;;;;;2.92;1.73;;;21.00;94.70;;;;;;10483580;28;20470;-65
2023/09/02 19:19:35;;;;;;;2.10;1.67;;;21.10;94.80;;;;;;10488989;28;20406;-65
2023/09/02 19:24:36;;;;;;;2.60;1.70;;;21.00;94.90;;;;;;10490170;28;20814;-65
2023/09/02 19:29:36;;;;;;;2.10;1.90;;;21.00;94.90;;;;;;10493740;28;20401;-65
2023/09/02 19:34:37;;;;;;;3.17;2.03;;;21.00;94.90;;;;;;10483832;28;20400;-65
2023/09/02 19:39:38;;;;;;;2.97;1.97;;;21.00;94.90;;;;;;10481996;28;20404;-66
2023/09/02 19:44:38;;;;;;;2.60;1.90;;;21.00;94.90;;;;;;10488915;28;20445;-66
2023/09/02 19:49:39;;;;;;;2.50;1.70;;;20.90;94.80;;;;;;10481656;28;20736;-65
2023/09/02 19:54:40;;;;;;;1.90;1.70;;;20.90;94.90;;;;;;10485151;28;20405;-66
2023/09/02 19:59:47;;;;;;;2.10;1.75;;;20.90;95.00;;;;;;10490770;28;20408;-64
2023/09/02 20:04:55;;;;;;;2.30;1.80;;;20.90;95.00;;;;;;10492955;28;20732;-65
2023/09/02 20:09:55;;;;;;;2.78;1.90;;;20.90;95.00;;;;;;10494236;28;20932;-65
2023/09/02 20:14:56;;;;;;;2.30;1.90;;;20.80;94.90;;;;;;10484161;28;20405;-65
2023/09/02 20:19:57;;;;;;;2.60;2.03;;;20.80;94.90;;;;;;10491087;28;20421;-65
2023/09/02 20:24:58;;;;;;;2.30;1.90;;;20.80;94.90;;;;;;10494861;28;20906;-65
2023/09/02 20:29:58;;;;;;;2.60;2.00;;;20.70;94.90;;;;;;10490417;28;20399;-65
2023/09/02 20:34:59;;;;;;;2.95;1.70;;;20.70;94.90;;;;;;10492364;28;20426;-66
2023/09/02 20:40:00;;;;;;;2.97;2.10;;;20.70;94.80;;;;;;10489449;28;20407;-65
2023/09/02 20:45:03;;;;;;;2.88;1.90;;;20.70;94.90;;;;;;10485206;28;20416;-66
2023/09/02 20:50:04;;;;;;;2.30;2.00;;;20.60;94.80;;;;;;10487333;28;20429;-65
2023/09/02 20:55:05;;;;;;;3.13;2.00;;;20.60;94.90;;;;;;10483251;28;20461;-65
2023/09/02 21:00:06;;;;;;;2.05;1.85;;;20.60;94.80;;;;;;10486636;28;20956;-65
2023/09/02 21:05:07;;;;;;;2.83;2.10;;;20.50;95.00;;;;;;10492706;28;20538;-65
2023/09/02 21:10:08;;;;;;;2.70;2.00;;;20.10;94.70;;;;;;10480006;28;21216;-65
2023/09/02 21:15:08;;;;;;;3.17;1.90;;;20.50;94.70;;;;;;10482280;28;20417;-65
2023/09/02 21:20:09;;;;;;;3.05;2.20;;;20.40;94.70;;;;;;10487516;28;20390;-65
2023/09/02 21:25:10;;;;;;;2.63;2.00;;;20.40;94.70;;;;;;10483304;28;20495;-66
2023/09/02 21:30:12;;;;;;;2.88;1.92;;;20.40;94.70;;;;;;10487892;28;20401;-65
2023/09/02 21:35:13;;;;;;;3.13;2.20;;;20.40;94.70;;;;;;10483747;28;20417;-66
2023/09/02 21:40:20;;;;;;;3.87;2.30;;;20.30;94.70;;;;;;10479828;28;20401;-65
2023/09/02 21:45:21;;;;;;;3.17;2.30;;;20.30;94.70;;;;;;10485770;28;20495;-66
2023/09/02 21:50:22;;;;;;;2.50;2.03;;;20.30;94.70;;;;;;10477446;28;20411;-66
2023/09/02 21:55:23;;;;;;;3.30;2.30;;;20.20;94.80;;;;;;10481211;28;20453;-65
2023/09/02 22:00:24;;;;;;;3.17;2.50;;;20.20;94.70;;;;;;10474033;28;20486;-65
2023/09/02 22:05:24;;;;;;;3.87;2.67;;;20.10;94.60;;;;;;10482907;28;20472;-65
2023/09/02 22:10:25;;;;;;;3.40;2.93;;;19.70;94.50;;;;;;10480521;28;20479;-66
2023/09/02 22:15:25;;;;;;;3.30;2.73;;;20.20;94.60;;;;;;10480769;28;20419;-65
2023/09/02 22:20:26;;;;;;;3.60;2.90;;;20.10;94.50;;;;;;10492479;28;20404;-65
2023/09/02 22:25:27;;;;;;;4.17;2.80;;;20.10;94.50;;;;;;10491955;28;20410;-65
2023/09/02 22:30:27;;;;;;;5.50;3.10;;;20.10;94.50;;;;;;10495590;28;20394;-64
2023/09/02 22:35:28;;;;;;;3.27;2.80;;;20.00;94.40;;;;;;10493594;28;20420;-65
2023/09/02 22:40:30;;;;;;;3.67;2.97;;;20.00;94.40;;;;;;10498631;28;20895;-65
2023/09/02 22:45:35;;;;;;;3.42;2.70;;;20.00;94.40;;;;;;10486245;28;20778;-63
2023/09/02 22:50:37;;;;;;;4.75;2.95;;;19.90;94.30;;;;;;10500618;28;20394;-63
2023/09/02 22:55:37;;;;;;;3.80;2.92;;;19.90;94.30;;;;;;10498442;28;20517;-66
2023/09/02 23:00:39;;;;;;;3.10;2.80;;;19.90;94.30;;;;;;10494190;28;20414;-65
2023/09/02 23:05:39;;;;;;;3.73;3.00;;;19.90;94.50;;;;;;10494773;28;20403;-65
2023/09/02 23:10:42;;;;;;;3.72;3.15;;;19.80;94.20;;;;;;10496852;28;20453;-65
2023/09/02 23:15:43;;;;;;;4.35;3.30;;;19.80;94.20;;;;;;10502740;28;20403;-64
2023/09/02 23:20:43;;;;;;;3.60;2.90;;;19.80;94.20;;;;;;10500746;28;20821;-64
2023/09/02 23:25:51;;;;;;;3.70;2.93;;;19.80;94.20;;;;;;10499443;28;20396;-65
2023/09/02 23:30:56;;;;;;;4.73;3.00;;;19.90;94.20;;;;;;10506768;28;20481;-65
2023/09/02 23:35:57;;;;;;;3.75;2.92;;;19.70;94.20;;;;;;10498322;28;20451;-65
2023/09/02 23:40:58;;;;;;;4.07;2.95;;;19.70;94.20;;;;;;10493976;28;20419;-65
2023/09/02 23:45:59;;;;;;;4.60;3.10;;;19.60;94.10;;;;;;10494883;28;20806;-64
2023/09/02 23:51:00;;;;;;;3.97;2.95;;;19.60;94.10;;;;;;10489544;28;20399;-65
2023/09/02 23:56:00;;;;;;;5.00;3.10;;;19.60;94.10;;;;;;10492332;28;20463;-65
